Time;durP1;ratioP1;P1;durP2;ratioP2;P2;SDS_P1;SDS_P2;PMS_P1;PMS_P2;Temp;Humidity;BMP_temperature;BMP_pressure;BME280_temperature;BME280_humidity;BME280_pressure;Samples;Min_cycle;Max_cycle;Signal;HPM_P1;HPM_P2
2021/09/14 00:00:32;;;;;;;1.20;1.20;;;13.20;99.90;;;;;;6124064;23;20920;-82
2021/09/14 00:03:16;;;;;;;1.30;1.23;;;13.10;99.90;;;;;;6143087;23;20372;-81
2021/09/14 00:06:01;;;;;;;1.35;1.35;;;13.10;99.90;;;;;;6122214;23;20412;-81
2021/09/14 00:08:45;;;;;;;1.60;1.30;;;13.10;99.90;;;;;;6143515;23;20385;-81
2021/09/14 00:11:29;;;;;;;1.30;1.20;;;13.00;99.90;;;;;;6124193;23;20930;-81
2021/09/14 00:14:14;;;;;;;1.27;1.17;;;13.00;99.90;;;;;;6142312;23;20384;-81
2021/09/14 00:16:58;;;;;;;1.40;1.30;;;13.00;99.90;;;;;;6121736;23;20441;-80
2021/09/14 00:19:42;;;;;;;1.10;1.00;;;12.90;99.90;;;;;;6163117;23;20392;-81
2021/09/14 00:22:27;;;;;;;1.58;1.48;;;12.90;99.90;;;;;;6122660;23;20368;-80
2021/09/14 00:25:11;;;;;;;1.25;1.15;;;12.90;99.90;;;;;;6122319;23;20393;-81
2021/09/14 00:27:56;;;;;;;1.35;1.30;;;12.80;99.90;;;;;;6122365;23;20377;-81
2021/09/14 00:30:40;;;;;;;1.10;1.10;;;12.80;99.90;;;;;;6123847;23;20392;-85
2021/09/14 00:33:24;;;;;;;1.20;1.20;;;12.80;99.90;;;;;;6135790;23;20392;-81
2021/09/14 00:36:10;;;;;;;1.33;1.27;;;12.90;99.90;;;;;;6128533;23;20368;-80
2021/09/14 00:38:54;;;;;;;1.13;1.13;;;12.90;99.90;;;;;;6126229;23;20383;-80
2021/09/14 00:41:38;;;;;;;1.47;1.37;;;12.90;99.90;;;;;;6124760;23;20375;-82
2021/09/14 00:44:23;;;;;;;1.40;1.30;;;12.90;99.90;;;;;;6144932;23;20380;-83
2021/09/14 00:47:08;;;;;;;1.60;1.50;;;12.90;99.90;;;;;;6122419;23;20377;-80
2021/09/14 00:49:52;;;;;;;1.25;1.15;;;13.00;99.90;;;;;;6124266;23;20436;-81
2021/09/14 00:52:37;;;;;;;2.05;1.65;;;13.00;99.90;;;;;;6165080;23;20365;-82
2021/09/14 00:55:21;;;;;;;1.50;1.40;;;13.10;99.90;;;;;;6122511;23;20419;-82
2021/09/14 00:58:05;;;;;;;1.23;1.23;;;13.00;99.90;;;;;;6144252;23;20413;-81
2021/09/14 01:00:50;;;;;;;1.30;1.20;;;13.10;99.90;;;;;;6123250;23;20420;-81
2021/09/14 01:03:34;;;;;;;1.70;1.60;;;13.10;99.90;;;;;;6144795;23;20491;-81
2021/09/14 01:06:18;;;;;;;1.58;1.48;;;13.00;99.90;;;;;;6145075;23;20376;-80
2021/09/14 01:09:03;;;;;;;1.40;1.25;;;13.10;99.90;;;;;;6122643;23;20395;-81
2021/09/14 01:11:47;;;;;;;1.67;1.57;;;13.10;99.90;;;;;;6144557;23;20811;-81
2021/09/14 01:14:32;;;;;;;2.10;1.90;;;13.20;99.90;;;;;;6103904;23;20447;-81
2021/09/14 01:17:16;;;;;;;1.50;1.40;;;13.30;99.90;;;;;;6125610;23;20381;-83
2021/09/14 01:20:00;;;;;;;1.35;1.35;;;13.30;99.90;;;;;;6123370;23;20408;-81
2021/09/14 01:22:45;;;;;;;1.70;1.60;;;13.20;99.90;;;;;;6125151;23;20365;-81
2021/09/14 01:25:29;;;;;;;1.77;1.67;;;13.20;99.90;;;;;;6147669;23;20403;-80
2021/09/14 01:28:17;;;;;;;1.60;1.50;;;13.30;99.90;;;;;;6127652;23;20805;-80
2021/09/14 01:31:01;;;;;;;1.50;1.40;;;13.40;99.90;;;;;;6124949;23;20400;-81
2021/09/14 01:33:51;;;;;;;1.60;1.50;;;13.40;99.90;;;;;;6145136;23;20445;-81
2021/09/14 01:36:38;;;;;;;1.50;1.45;;;13.50;99.90;;;;;;6146543;23;20369;-79
2021/09/14 01:39:22;;;;;;;2.33;2.13;;;13.50;99.90;;;;;;6125749;23;20384;-80
2021/09/14 01:42:07;;;;;;;1.85;1.73;;;13.40;99.90;;;;;;6124878;23;20873;-82
2021/09/14 01:44:52;;;;;;;1.70;1.58;;;13.30;99.90;;;;;;6158252;23;20432;-80
2021/09/14 01:47:36;;;;;;;1.52;1.42;;;13.40;99.90;;;;;;6132930;23;20365;-82
2021/09/14 01:50:20;;;;;;;1.80;1.70;;;13.50;99.90;;;;;;6131476;23;20392;-82
2021/09/14 01:53:05;;;;;;;1.48;1.42;;;13.50;99.90;;;;;;6128438;23;20376;-81
2021/09/14 01:55:54;;;;;;;1.60;1.50;;;13.50;99.90;;;;;;6148181;23;20392;-79
2021/09/14 01:58:39;;;;;;;1.85;1.60;;;13.60;99.90;;;;;;6126385;23;20420;-82
2021/09/14 02:01:39;;;;;;;1.85;1.75;;;13.80;99.90;;;;;;6127291;23;20761;-80
2021/09/14 02:04:38;;;;;;;1.85;1.75;;;13.70;99.90;;;;;;6105693;23;20390;-81
2021/09/14 02:41:02;;;;;;;2.30;2.10;;;14.20;99.90;;;;;;6134315;23;20392;-81
2021/09/14 02:44:05;;;;;;;1.90;1.75;;;14.20;99.90;;;;;;6156901;23;20371;-82
2021/09/14 02:56:26;;;;;;;1.80;1.70;;;14.20;99.90;;;;;;6143828;23;20364;-83
2021/09/14 02:59:10;;;;;;;1.83;1.73;;;14.30;99.90;;;;;;6143092;23;20388;-84
2021/09/14 03:01:55;;;;;;;1.80;1.70;;;14.30;99.90;;;;;;6154496;23;20403;-81
2021/09/14 03:04:40;;;;;;;1.70;1.60;;;14.20;99.90;;;;;;6152180;23;20373;-81
2021/09/14 03:07:24;;;;;;;1.90;1.80;;;14.30;99.90;;;;;;6129313;23;20364;-82
2021/09/14 03:10:08;;;;;;;2.45;1.63;;;14.30;99.90;;;;;;6131036;23;20395;-82
2021/09/14 03:12:54;;;;;;;1.77;1.67;;;14.30;99.90;;;;;;6128309;23;20789;-81
2021/09/14 03:15:38;;;;;;;1.90;1.80;;;14.30;99.90;;;;;;6127521;23;20357;-82
2021/09/14 03:18:23;;;;;;;1.85;1.73;;;14.30;99.90;;;;;;6126082;23;20703;-82
2021/09/14 03:21:10;;;;;;;1.80;1.70;;;14.30;99.90;;;;;;6129138;23;20364;-82
2021/09/14 03:23:55;;;;;;;1.60;1.50;;;14.30;99.90;;;;;;6129263;23;20416;-82
2021/09/14 03:26:39;;;;;;;3.20;2.40;;;14.20;99.90;;;;;;6129961;23;20476;-81
2021/09/14 03:29:24;;;;;;;2.40;2.20;;;14.10;99.90;;;;;;6129553;23;20369;-82
2021/09/14 03:32:08;;;;;;;1.67;1.58;;;14.00;99.90;;;;;;6149403;23;20499;-81
2021/09/14 03:34:53;;;;;;;1.80;1.70;;;14.00;99.90;;;;;;6125154;23;20435;-81
2021/09/14 03:38:00;;;;;;;1.85;1.75;;;14.00;99.90;;;;;;6132851;23;20376;-83
2021/09/14 03:41:23;;;;;;;1.70;1.60;;;14.10;99.90;;;;;;6169510;23;20428;-89
2021/09/14 03:44:08;;;;;;;1.60;1.50;;;14.10;99.90;;;;;;6138754;23;20446;-81
2021/09/14 03:46:53;;;;;;;1.50;1.40;;;14.10;99.90;;;;;;6147339;23;20424;-82
2021/09/14 03:49:37;;;;;;;1.20;1.20;;;14.10;99.90;;;;;;6122212;23;20381;-82
2021/09/14 03:52:21;;;;;;;1.58;1.48;;;14.10;99.90;;;;;;6164154;23;20376;-81
2021/09/14 03:55:06;;;;;;;1.63;1.53;;;14.10;99.90;;;;;;6124039;23;20424;-82
2021/09/14 03:57:55;;;;;;;1.52;1.42;;;14.10;99.90;;;;;;6098233;23;20423;-82
2021/09/14 04:00:39;;;;;;;1.42;1.33;;;14.20;99.90;;;;;;6121355;23;20852;-82
2021/09/14 04:06:40;;;;;;;1.45;1.33;;;14.10;99.90;;;;;;6120098;23;20416;-85
2021/09/14 04:09:26;;;;;;;1.50;1.40;;;14.20;99.90;;;;;;6157581;23;20456;-82
2021/09/14 04:12:12;;;;;;;1.58;1.48;;;14.30;99.90;;;;;;6132184;23;20368;-85
2021/09/14 04:14:56;;;;;;;1.50;1.40;;;14.30;99.90;;;;;;6130643;23;20400;-82
2021/09/14 04:17:40;;;;;;;2.88;1.30;;;14.30;99.90;;;;;;6125681;23;20368;-85
2021/09/14 04:20:26;;;;;;;2.07;1.80;;;14.50;99.90;;;;;;6124732;23;20396;-83
2021/09/14 04:23:11;;;;;;;1.73;1.63;;;14.30;99.90;;;;;;6127017;23;20420;-82
2021/09/14 04:25:55;;;;;;;1.60;1.50;;;14.30;99.90;;;;;;6122337;23;20387;-81
2021/09/14 04:28:40;;;;;;;1.65;1.55;;;14.20;99.90;;;;;;6121665;23;20738;-87
2021/09/14 04:31:25;;;;;;;1.70;1.60;;;14.30;99.90;;;;;;6140990;23;20369;-88
2021/09/14 04:34:09;;;;;;;1.50;1.40;;;14.20;99.90;;;;;;6129282;23;20383;-83
2021/09/14 04:36:54;;;;;;;3.25;1.80;;;14.20;99.90;;;;;;6131709;23;20425;-82
2021/09/14 04:39:38;;;;;;;1.70;1.60;;;14.20;99.90;;;;;;6143977;23;20365;-88
2021/09/14 04:42:23;;;;;;;1.70;1.60;;;14.00;99.90;;;;;;6130045;23;20373;-86
2021/09/14 04:45:08;;;;;;;1.30;1.30;;;14.10;99.90;;;;;;6128676;23;20364;-89
2021/09/14 04:47:53;;;;;;;1.50;1.40;;;14.00;99.90;;;;;;6126867;23;21129;-82
2021/09/14 04:50:38;;;;;;;2.50;2.30;;;14.10;99.90;;;;;;6126794;23;20373;-84
2021/09/14 04:53:23;;;;;;;1.90;1.80;;;14.00;99.90;;;;;;6147017;23;20380;-86
2021/09/14 04:56:08;;;;;;;1.55;1.45;;;13.90;99.90;;;;;;6128883;23;20432;-87
2021/09/14 04:58:53;;;;;;;2.30;2.10;;;13.90;99.90;;;;;;6127345;23;20380;-86
2021/09/14 05:01:38;;;;;;;2.20;1.80;;;13.90;99.90;;;;;;6128462;23;20368;-84
2021/09/14 05:04:22;;;;;;;4.03;1.63;;;13.90;99.90;;;;;;6149781;23;20400;-84
2021/09/14 05:07:07;;;;;;;1.80;1.70;;;13.90;99.90;;;;;;6129277;23;20365;-83
2021/09/14 05:09:51;;;;;;;1.45;1.40;;;13.90;99.90;;;;;;6129200;23;20373;-87
2021/09/14 05:12:36;;;;;;;1.60;1.50;;;13.90;99.90;;;;;;6128745;23;20441;-85
2021/09/14 05:15:20;;;;;;;2.40;2.20;;;13.90;99.90;;;;;;6129223;23;20388;-83
2021/09/14 05:18:21;;;;;;;1.73;1.63;;;14.00;99.90;;;;;;6135293;23;20388;-83
2021/09/14 05:33:21;;;;;;;2.00;1.85;;;13.90;99.90;;;;;;6254512;22;20418;-92
2021/09/14 06:23:08;;;;;;;2.53;2.33;;;14.40;99.90;;;;;;6244937;22;20377;-90
2021/09/14 06:44:13;;;;;;;2.43;2.23;;;14.80;99.90;;;;;;6261254;22;20354;-91
2021/09/14 06:47:09;;;;;;;2.70;2.10;;;14.90;99.90;;;;;;6185821;22;20368;-90
2021/09/14 06:49:54;;;;;;;2.30;2.10;;;14.90;99.90;;;;;;6180225;22;20392;-90
2021/09/14 06:52:39;;;;;;;2.50;2.20;;;14.90;99.90;;;;;;6182083;22;20341;-89
2021/09/14 06:55:24;;;;;;;2.17;1.98;;;14.90;99.90;;;;;;6182093;22;20429;-90
2021/09/14 06:58:08;;;;;;;2.03;1.80;;;14.90;99.90;;;;;;6181414;22;20392;-90
2021/09/14 07:00:53;;;;;;;1.80;1.70;;;15.00;99.90;;;;;;6201372;22;20421;-91
2021/09/14 07:03:37;;;;;;;2.17;1.97;;;15.00;99.90;;;;;;6204967;22;20700;-92
2021/09/14 07:06:22;;;;;;;1.92;1.83;;;15.10;99.90;;;;;;6182131;22;20421;-90
2021/09/14 07:09:07;;;;;;;2.00;1.90;;;15.10;99.90;;;;;;6181894;22;20373;-90
2021/09/14 07:11:51;;;;;;;1.95;1.85;;;15.00;99.90;;;;;;6184158;22;20380;-91
2021/09/14 07:14:38;;;;;;;2.20;2.10;;;15.00;99.90;;;;;;6181996;22;20381;-91
2021/09/14 07:17:22;;;;;;;1.60;1.50;;;15.10;99.90;;;;;;6184042;22;20365;-90
2021/09/14 07:20:08;;;;;;;1.80;1.70;;;15.10;99.90;;;;;;6182318;22;20352;-90
2021/09/14 07:22:52;;;;;;;1.70;1.60;;;15.20;99.90;;;;;;6204010;22;20353;-91
2021/09/14 07:25:52;;;;;;;1.77;1.67;;;15.20;99.90;;;;;;6184007;22;20357;-92
2021/09/14 07:53:00;;;;;;;1.60;1.50;;;15.90;99.90;;;;;;6249257;22;20370;-93
2021/09/14 13:07:03;;;;;;;6.38;1.77;;;33.70;78.20;;;;;;6252093;22;20345;-81
2021/09/14 13:09:51;;;;;;;2.15;1.95;;;33.70;79.10;;;;;;6177586;22;20365;-81
2021/09/14 13:18:50;;;;;;;2.07;1.87;;;32.80;76.50;;;;;;6244718;22;20361;-81
2021/09/14 13:21:36;;;;;;;1.92;1.83;;;33.10;75.90;;;;;;6182189;22;20376;-81
2021/09/14 14:46:11;;;;;;;1.80;1.70;;;29.60;76.90;;;;;;6125799;23;20381;-89
2021/09/14 14:49:08;;;;;;;1.58;1.50;;;29.20;77.80;;;;;;6090501;23;20369;-93
2021/09/14 14:52:13;;;;;;;1.70;1.60;;;28.90;80.90;;;;;;6076051;23;20386;-90
2021/09/14 14:55:13;;;;;;;1.52;1.42;;;28.40;81.90;;;;;;6107940;23;20751;-92
2021/09/14 14:58:28;;;;;;;1.60;1.50;;;28.40;83.50;;;;;;6045490;23;20505;-89
2021/09/14 15:02:29;;;;;;;1.40;1.30;;;28.60;83.40;;;;;;6060928;23;20368;-90
2021/09/14 15:05:51;;;;;;;1.88;1.77;;;28.50;83.80;;;;;;6106199;23;20407;-91
2021/09/14 15:09:12;;;;;;;1.63;1.53;;;28.30;84.30;;;;;;6103505;23;20402;-90
2021/09/14 15:12:06;;;;;;;2.03;1.60;;;28.10;84.30;;;;;;6083744;23;20406;-91
2021/09/14 15:15:00;;;;;;;1.80;1.70;;;27.80;85.50;;;;;;6121037;23;20406;-90
2021/09/14 15:17:48;;;;;;;1.77;1.67;;;27.40;86.40;;;;;;6122957;23;20379;-91
2021/09/14 15:20:38;;;;;;;1.75;1.65;;;27.20;87.50;;;;;;6140019;23;20382;-91
2021/09/14 15:23:24;;;;;;;1.58;1.48;;;27.00;87.30;;;;;;6086207;23;20378;-89
2021/09/14 15:26:11;;;;;;;2.85;1.70;;;26.90;88.20;;;;;;6142238;23;20373;-91
2021/09/14 15:29:06;;;;;;;1.45;1.42;;;26.70;88.30;;;;;;6121731;23;20402;-90
2021/09/14 15:31:53;;;;;;;1.83;1.73;;;26.70;88.60;;;;;;6099660;23;20370;-90
2021/09/14 15:34:41;;;;;;;1.60;1.50;;;26.80;88.20;;;;;;6102016;23;20377;-90
2021/09/14 15:37:27;;;;;;;1.77;1.67;;;26.60;90.10;;;;;;6122866;23;20429;-91
2021/09/14 15:40:13;;;;;;;1.30;1.30;;;26.40;90.10;;;;;;6099728;23;20393;-91
2021/09/14 15:42:58;;;;;;;1.70;1.60;;;26.30;90.50;;;;;;6145255;23;20386;-91
2021/09/14 15:45:44;;;;;;;1.50;1.40;;;26.30;90.40;;;;;;6098303;23;20394;-89
2021/09/14 15:48:29;;;;;;;1.77;1.67;;;26.10;90.90;;;;;;6120513;23;20402;-91
2021/09/14 15:51:14;;;;;;;2.10;2.00;;;25.90;91.10;;;;;;6100293;23;20374;-92
2021/09/14 15:53:58;;;;;;;1.80;1.70;;;25.60;91.40;;;;;;6121029;23;20394;-92
2021/09/14 15:56:43;;;;;;;1.30;1.30;;;25.50;91.70;;;;;;6099242;23;20378;-92
2021/09/14 15:59:28;;;;;;;1.48;1.38;;;25.40;92.20;;;;;;6087906;23;20374;-90
2021/09/14 16:02:12;;;;;;;1.30;1.30;;;25.30;92.40;;;;;;6101269;23;20451;-91
2021/09/14 16:04:57;;;;;;;1.60;1.50;;;25.30;92.60;;;;;;6101695;23;20893;-92
2021/09/14 16:07:41;;;;;;;1.70;1.60;;;25.20;92.60;;;;;;6122400;23;20365;-91
2021/09/14 16:10:28;;;;;;;1.70;1.50;;;25.10;92.90;;;;;;6102005;23;20377;-90
2021/09/14 16:13:13;;;;;;;1.55;1.45;;;24.90;93.50;;;;;;6122197;23;20418;-90
2021/09/14 16:15:57;;;;;;;1.73;1.63;;;24.90;93.70;;;;;;6123514;23;20370;-87
2021/09/14 16:18:41;;;;;;;1.50;1.40;;;24.70;93.90;;;;;;6102263;23;20370;-90
2021/09/14 16:21:27;;;;;;;2.40;1.50;;;24.50;94.20;;;;;;6109380;23;20366;-89
2021/09/14 16:24:13;;;;;;;1.80;1.70;;;24.40;94.50;;;;;;6130172;23;20375;-88
2021/09/14 16:26:57;;;;;;;1.60;1.50;;;24.30;95.00;;;;;;6069802;23;20405;-90
2021/09/14 16:29:42;;;;;;;1.73;1.63;;;24.20;95.30;;;;;;6102077;23;20487;-91
2021/09/14 16:32:26;;;;;;;1.73;1.63;;;24.20;95.60;;;;;;6105442;23;20370;-91
2021/09/14 16:35:11;;;;;;;1.80;1.70;;;24.20;96.00;;;;;;6141393;23;20394;-90
2021/09/14 16:37:58;;;;;;;1.67;1.58;;;23.90;96.10;;;;;;6100938;23;20402;-90
2021/09/14 16:40:42;;;;;;;1.70;1.60;;;23.70;96.60;;;;;;6099549;23;20405;-91
2021/09/14 16:43:32;;;;;;;1.77;1.67;;;23.70;96.70;;;;;;6100851;23;20382;-91
2021/09/14 16:46:17;;;;;;;1.70;1.60;;;23.60;97.10;;;;;;6121416;23;20406;-91
2021/09/14 16:49:01;;;;;;;1.70;1.60;;;23.30;97.50;;;;;;6103408;23;20366;-91
2021/09/14 16:51:45;;;;;;;1.70;1.60;;;23.30;97.90;;;;;;6091200;23;20369;-88
2021/09/14 16:54:30;;;;;;;1.80;1.70;;;23.20;98.30;;;;;;6101881;23;20473;-91
2021/09/14 16:57:15;;;;;;;1.85;1.60;;;23.00;98.50;;;;;;6101786;23;20373;-92
2021/09/14 17:00:04;;;;;;;1.52;1.42;;;23.00;99.00;;;;;;6104235;23;20431;-90
2021/09/14 17:02:49;;;;;;;1.90;1.80;;;23.10;99.30;;;;;;6112016;23;20435;-91
2021/09/14 17:05:34;;;;;;;1.73;1.63;;;22.90;99.70;;;;;;6124166;23;20362;-91
2021/09/14 17:08:19;;;;;;;1.88;1.70;;;22.90;99.90;;;;;;6110263;23;20373;-90
2021/09/14 17:11:03;;;;;;;1.73;1.63;;;22.70;99.90;;;;;;6103754;23;20423;-91
2021/09/14 17:13:48;;;;;;;2.15;1.95;;;22.60;99.90;;;;;;6125619;23;20402;-91
2021/09/14 17:16:33;;;;;;;2.00;1.80;;;22.50;99.90;;;;;;6123200;23;20431;-91
2021/09/14 17:19:17;;;;;;;1.70;1.60;;;22.40;99.90;;;;;;6122984;23;20378;-90
2021/09/14 17:22:02;;;;;;;1.25;1.25;;;22.30;99.90;;;;;;6103234;23;20447;-91
2021/09/14 17:24:46;;;;;;;1.67;1.58;;;22.20;99.90;;;;;;6122817;23;20366;-92
2021/09/14 17:27:31;;;;;;;1.63;1.45;;;22.10;99.90;;;;;;6104014;23;20367;-89
2021/09/14 17:30:15;;;;;;;1.20;1.20;;;22.10;99.90;;;;;;6102690;23;20399;-92
2021/09/14 17:33:00;;;;;;;1.50;1.40;;;22.00;99.90;;;;;;6102098;23;20382;-89
2021/09/14 17:35:44;;;;;;;1.60;1.50;;;21.90;99.90;;;;;;6101319;23;20394;-88
2021/09/14 17:38:29;;;;;;;2.75;1.70;;;21.70;99.90;;;;;;6118833;23;20370;-93
2021/09/14 17:41:13;;;;;;;1.83;1.73;;;21.70;99.90;;;;;;6102588;23;20453;-92
2021/09/14 17:43:58;;;;;;;1.75;1.65;;;21.50;99.90;;;;;;6101890;23;20439;-92
2021/09/14 17:46:46;;;;;;;1.70;1.60;;;21.50;99.90;;;;;;6121545;23;20377;-91
2021/09/14 17:49:30;;;;;;;1.75;1.65;;;21.40;99.90;;;;;;6100842;23;20374;-92
2021/09/14 17:52:14;;;;;;;1.63;1.52;;;21.30;99.90;;;;;;6101799;23;20398;-91
2021/09/14 17:54:59;;;;;;;1.70;1.60;;;21.20;99.90;;;;;;6121671;23;20391;-91
2021/09/14 17:57:43;;;;;;;1.60;1.50;;;21.10;99.90;;;;;;6102082;23;20374;-91
2021/09/14 18:00:28;;;;;;;2.10;2.00;;;21.00;99.90;;;;;;6123171;23;20366;-89
2021/09/14 18:03:12;;;;;;;1.70;1.60;;;20.90;99.90;;;;;;6103962;23;20525;-89
2021/09/14 18:05:57;;;;;;;2.40;2.05;;;20.80;99.90;;;;;;6102679;23;20377;-90
2021/09/14 18:08:41;;;;;;;1.50;1.40;;;20.70;99.90;;;;;;6103860;23;20419;-90
2021/09/14 18:11:25;;;;;;;1.60;1.50;;;20.70;99.90;;;;;;6101474;23;20338;-91
2021/09/14 18:14:10;;;;;;;1.60;1.50;;;20.50;99.90;;;;;;6125357;23;20381;-92
2021/09/14 18:16:54;;;;;;;1.65;1.55;;;20.40;99.90;;;;;;6102416;23;20378;-91
2021/09/14 18:19:38;;;;;;;1.80;1.70;;;20.30;99.90;;;;;;6102225;23;20425;-90
2021/09/14 18:22:23;;;;;;;1.60;1.50;;;20.20;99.90;;;;;;6103043;23;20377;-90
2021/09/14 18:25:08;;;;;;;1.70;1.60;;;20.10;99.90;;;;;;6090206;23;20374;-91
2021/09/14 18:27:52;;;;;;;1.88;1.77;;;20.00;99.90;;;;;;6126887;23;20547;-91
2021/09/14 18:30:36;;;;;;;1.75;1.65;;;19.90;99.90;;;;;;6102487;23;20382;-91
2021/09/14 18:33:21;;;;;;;1.55;1.45;;;19.90;99.90;;;;;;6105765;23;20433;-91
2021/09/14 18:36:05;;;;;;;1.73;1.63;;;19.80;99.90;;;;;;6103388;23;20393;-92
2021/09/14 18:38:50;;;;;;;1.60;1.50;;;19.70;99.90;;;;;;6104200;23;20358;-89
2021/09/14 18:41:36;;;;;;;2.00;1.43;;;19.70;99.90;;;;;;6101680;23;20377;-89
2021/09/14 18:44:20;;;;;;;1.60;1.50;;;19.60;99.90;;;;;;6123662;23;20425;-89
2021/09/14 18:47:05;;;;;;;1.55;1.45;;;19.60;99.90;;;;;;6104290;23;20484;-88
2021/09/14 18:49:49;;;;;;;2.10;1.90;;;19.60;99.90;;;;;;6139600;23;20362;-89
2021/09/14 18:52:33;;;;;;;1.60;1.50;;;19.40;99.90;;;;;;6125803;23;20414;-91
2021/09/14 18:55:20;;;;;;;2.00;1.90;;;19.30;99.90;;;;;;6117174;23;20372;-91
2021/09/14 18:58:04;;;;;;;1.63;1.40;;;19.20;99.90;;;;;;6125819;23;20381;-91
2021/09/14 19:00:49;;;;;;;1.95;1.65;;;19.10;99.90;;;;;;6125644;23;20514;-90
2021/09/14 19:03:33;;;;;;;1.63;1.52;;;19.00;99.90;;;;;;6128611;23;20390;-91
2021/09/14 19:06:22;;;;;;;1.55;1.45;;;18.90;99.90;;;;;;6126920;23;20366;-87
2021/09/14 19:09:11;;;;;;;1.70;1.60;;;18.80;99.90;;;;;;6116472;23;20409;-91
2021/09/14 19:11:57;;;;;;;2.13;1.70;;;18.80;99.90;;;;;;6112578;23;20372;-90
2021/09/14 19:14:42;;;;;;;1.95;1.85;;;18.80;99.90;;;;;;6127118;23;20429;-92
2021/09/14 19:17:27;;;;;;;1.77;1.67;;;18.60;99.90;;;;;;6147824;23;20714;-90
2021/09/14 19:20:12;;;;;;;1.63;1.48;;;18.60;99.90;;;;;;6123862;23;20382;-90
2021/09/14 19:22:56;;;;;;;1.60;1.50;;;18.40;99.90;;;;;;6128123;23;20386;-91
2021/09/14 19:25:41;;;;;;;1.42;1.33;;;18.40;99.90;;;;;;6125577;23;20389;-89
2021/09/14 19:28:25;;;;;;;1.70;1.60;;;18.30;99.90;;;;;;6146983;23;20398;-89
2021/09/14 19:31:10;;;;;;;1.63;1.52;;;18.30;99.90;;;;;;6125984;23;20422;-90
2021/09/14 19:33:54;;;;;;;1.40;1.30;;;18.30;99.90;;;;;;6125963;23;20390;-91
2021/09/14 19:36:38;;;;;;;1.80;1.70;;;18.20;99.90;;;;;;6127136;23;20365;-90
2021/09/14 19:39:22;;;;;;;1.85;1.75;;;18.10;99.90;;;;;;6126454;23;20418;-90
2021/09/14 19:42:07;;;;;;;1.80;1.70;;;18.00;99.90;;;;;;6126371;23;20373;-92
2021/09/14 19:44:54;;;;;;;1.75;1.65;;;18.00;99.90;;;;;;6126763;23;20410;-88
2021/09/14 19:47:38;;;;;;;1.70;1.60;;;17.90;99.90;;;;;;6126758;23;20675;-88
2021/09/14 19:50:23;;;;;;;2.10;2.00;;;17.80;99.90;;;;;;6126614;23;20424;-86
2021/09/14 19:53:07;;;;;;;2.00;1.60;;;17.70;99.90;;;;;;6127164;23;20398;-87
2021/09/14 19:55:52;;;;;;;1.67;1.58;;;17.70;99.90;;;;;;6125707;23;20382;-90
2021/09/14 19:58:36;;;;;;;2.00;1.90;;;17.70;99.90;;;;;;6147652;23;20354;-87
2021/09/14 20:01:20;;;;;;;1.83;1.73;;;17.60;99.90;;;;;;6126436;23;20361;-90
2021/09/14 20:04:05;;;;;;;1.95;1.60;;;17.60;99.90;;;;;;6103656;23;20367;-91
2021/09/14 20:06:50;;;;;;;1.90;1.80;;;17.50;99.90;;;;;;6113395;23;20564;-82
2021/09/14 20:09:35;;;;;;;1.55;1.45;;;17.50;99.90;;;;;;6101513;23;20421;-90
2021/09/14 20:12:20;;;;;;;2.10;1.70;;;17.40;99.90;;;;;;6141231;23;20441;-89
2021/09/14 20:15:05;;;;;;;1.80;1.70;;;17.40;99.90;;;;;;6117034;23;20421;-89
2021/09/14 20:17:49;;;;;;;1.90;1.80;;;17.30;99.90;;;;;;6137875;23;20370;-86
2021/09/14 20:20:34;;;;;;;1.80;1.70;;;17.30;99.90;;;;;;6120839;23;20378;-86
2021/09/14 20:23:19;;;;;;;2.07;1.97;;;17.20;99.90;;;;;;6121079;23;20414;-89
2021/09/14 20:26:03;;;;;;;1.80;1.70;;;17.20;99.90;;;;;;6119858;23;20374;-90
2021/09/14 20:28:48;;;;;;;1.90;1.80;;;17.20;99.90;;;;;;6124979;23;20401;-92
2021/09/14 20:31:32;;;;;;;1.75;1.65;;;17.10;99.90;;;;;;6127710;23;20438;-92
2021/09/14 20:34:16;;;;;;;1.80;1.70;;;17.10;99.90;;;;;;6128356;23;20369;-92
2021/09/14 20:37:02;;;;;;;1.73;1.63;;;17.10;99.90;;;;;;6126326;23;20373;-92
2021/09/14 20:39:47;;;;;;;2.00;1.90;;;17.10;99.90;;;;;;6126654;23;20370;-91
2021/09/14 20:42:32;;;;;;;2.30;2.10;;;17.10;99.90;;;;;;6127443;23;20374;-90
2021/09/14 20:45:16;;;;;;;1.73;1.63;;;17.00;99.90;;;;;;6127588;23;20426;-90
2021/09/14 20:48:01;;;;;;;2.17;2.00;;;17.00;99.90;;;;;;6128083;23;20378;-91
2021/09/14 20:50:45;;;;;;;2.00;1.77;;;16.90;99.90;;;;;;6105197;23;20451;-92
2021/09/14 20:53:33;;;;;;;1.90;1.80;;;16.90;99.90;;;;;;6148199;23;20413;-91
2021/09/14 20:56:18;;;;;;;1.97;1.80;;;16.90;99.90;;;;;;6108018;23;20362;-92
2021/09/14 20:59:03;;;;;;;1.80;1.70;;;16.80;99.90;;;;;;6108497;23;20358;-91
2021/09/14 21:01:47;;;;;;;2.10;1.90;;;16.80;99.90;;;;;;6107633;23;20385;-94
2021/09/14 21:04:32;;;;;;;2.25;2.05;;;16.80;99.90;;;;;;6106659;23;20378;-92
2021/09/14 21:07:16;;;;;;;2.30;2.20;;;16.70;99.90;;;;;;6107495;23;20431;-92
2021/09/14 21:10:01;;;;;;;2.17;2.08;;;16.70;99.90;;;;;;6106219;23;20378;-90
2021/09/14 21:12:45;;;;;;;2.17;1.98;;;16.70;99.90;;;;;;6107255;23;20370;-92
2021/09/14 21:15:30;;;;;;;2.70;2.50;;;16.70;99.90;;;;;;6147723;23;20397;-90
2021/09/14 21:18:17;;;;;;;2.70;2.50;;;16.60;99.90;;;;;;6108386;23;20501;-90
2021/09/14 21:21:02;;;;;;;2.63;2.42;;;16.60;99.90;;;;;;6109295;23;20350;-91
2021/09/14 21:23:46;;;;;;;2.55;2.35;;;16.50;99.90;;;;;;6107914;23;20389;-91
2021/09/14 21:26:30;;;;;;;2.00;1.90;;;16.50;99.90;;;;;;6106673;23;20366;-93
2021/09/14 21:29:15;;;;;;;2.60;2.40;;;16.50;99.90;;;;;;6108439;23;20433;-91
2021/09/14 21:32:00;;;;;;;2.30;2.10;;;16.50;99.90;;;;;;6128082;23;20406;-88
2021/09/14 21:34:44;;;;;;;2.30;2.10;;;16.50;99.90;;;;;;6107285;23;20693;-91
2021/09/14 21:37:29;;;;;;;2.50;2.30;;;16.50;99.90;;;;;;6107084;23;20385;-93
2021/09/14 21:40:13;;;;;;;2.30;2.20;;;16.50;99.90;;;;;;6106854;23;20382;-90
2021/09/14 21:42:57;;;;;;;2.65;2.45;;;16.50;99.90;;;;;;6108450;23;20383;-91
2021/09/14 21:45:42;;;;;;;2.67;2.47;;;16.50;99.90;;;;;;6107248;23;20342;-92
2021/09/14 21:48:27;;;;;;;2.65;2.45;;;16.40;99.90;;;;;;6128870;23;20378;-92
2021/09/14 21:51:11;;;;;;;3.67;2.40;;;16.40;99.90;;;;;;6106419;23;20443;-86
2021/09/14 21:53:56;;;;;;;2.03;1.90;;;16.40;99.90;;;;;;6127917;23;20406;-91
2021/09/14 21:56:40;;;;;;;2.00;1.90;;;16.40;99.90;;;;;;6106391;23;20394;-92
2021/09/14 21:59:25;;;;;;;2.37;2.20;;;16.40;99.90;;;;;;6128675;23;20358;-94
2021/09/14 22:02:11;;;;;;;2.53;2.33;;;16.30;99.90;;;;;;6106199;23;20358;-90
2021/09/14 22:04:56;;;;;;;2.47;2.28;;;16.40;99.90;;;;;;6107257;23;20357;-92
2021/09/14 22:07:42;;;;;;;2.40;2.20;;;16.30;99.90;;;;;;6108126;23;20443;-92
2021/09/14 22:10:27;;;;;;;2.17;2.08;;;16.30;99.90;;;;;;6108881;23;20366;-92
2021/09/14 22:13:12;;;;;;;2.58;2.38;;;16.30;99.90;;;;;;6107942;23;20366;-93
2021/09/14 22:15:57;;;;;;;2.40;2.20;;;16.20;99.90;;;;;;6108173;23;20369;-90
2021/09/14 22:18:43;;;;;;;2.45;2.25;;;16.20;99.90;;;;;;6109160;23;20446;-92
2021/09/14 22:21:27;;;;;;;5.00;2.78;;;16.20;99.90;;;;;;6107367;23;20374;-91
2021/09/14 22:24:11;;;;;;;2.75;2.45;;;16.20;99.90;;;;;;6108315;23;20405;-92
2021/09/14 22:26:59;;;;;;;2.87;2.57;;;16.10;99.90;;;;;;6108205;23;20413;-93
2021/09/14 22:29:44;;;;;;;2.83;2.63;;;16.10;99.90;;;;;;6102085;23;20428;-89
2021/09/14 22:32:28;;;;;;;2.40;2.20;;;16.10;99.90;;;;;;6123359;23;20370;-89
2021/09/14 22:35:12;;;;;;;2.67;2.03;;;16.00;99.90;;;;;;6121494;23;20393;-87
2021/09/14 22:37:57;;;;;;;2.40;2.20;;;16.00;99.90;;;;;;6100409;23;20422;-90
2021/09/14 22:40:42;;;;;;;2.25;2.10;;;16.00;99.90;;;;;;6099420;23;20373;-88
2021/09/14 22:43:27;;;;;;;2.97;2.72;;;16.00;99.90;;;;;;6100933;23;20378;-89
2021/09/14 22:46:11;;;;;;;3.30;3.00;;;16.00;99.90;;;;;;6098858;23;20406;-92
2021/09/14 22:48:55;;;;;;;2.10;1.95;;;16.00;99.90;;;;;;6099066;23;20374;-88
2021/09/14 22:51:40;;;;;;;3.00;2.67;;;15.90;99.90;;;;;;6106214;23;20370;-89
2021/09/14 22:54:24;;;;;;;2.05;1.92;;;15.90;99.90;;;;;;6099009;23;20382;-91
2021/09/14 22:57:09;;;;;;;2.67;2.47;;;15.90;99.90;;;;;;6102352;23;20470;-89
2021/09/14 22:59:53;;;;;;;2.47;2.28;;;15.90;99.90;;;;;;6101042;23;20452;-88
2021/09/14 23:02:38;;;;;;;2.60;2.40;;;15.80;99.90;;;;;;6143175;23;20559;-91
2021/09/14 23:05:22;;;;;;;2.63;2.42;;;15.80;99.90;;;;;;6101291;23;20397;-92
2021/09/14 23:08:07;;;;;;;2.80;2.42;;;15.80;99.90;;;;;;6100245;23;20921;-91
2021/09/14 23:10:51;;;;;;;2.17;2.08;;;15.80;99.90;;;;;;6120456;23;20370;-87
2021/09/14 23:13:35;;;;;;;2.55;2.35;;;15.70;99.90;;;;;;6122323;23;20538;-89
2021/09/14 23:16:20;;;;;;;2.63;2.42;;;15.70;99.90;;;;;;6100897;23;20369;-87
2021/09/14 23:19:04;;;;;;;2.40;2.20;;;15.60;99.90;;;;;;6101696;23;20405;-87
2021/09/14 23:21:48;;;;;;;2.80;2.60;;;15.60;99.90;;;;;;6143350;23;20390;-91
2021/09/14 23:24:33;;;;;;;2.50;2.30;;;15.60;99.90;;;;;;6100261;23;20439;-92
2021/09/14 23:27:17;;;;;;;2.88;2.67;;;15.60;99.90;;;;;;6081219;23;20419;-91
2021/09/14 23:30:02;;;;;;;2.85;2.65;;;15.50;99.90;;;;;;6102989;23;20417;-90
2021/09/14 23:32:46;;;;;;;2.97;2.70;;;15.40;99.90;;;;;;6123206;23;20398;-89